Canefield Airport

Cloudy with adjacent showers
28oC (82oF)

Cloudy with adjacent showers


Winds: South south easterly @ 06kts/ 11km/h

Humidity: 61%

Barometric Pressure: 1015 mb

Accumulated Rainfall for December: 105.0 mm

Updated: 11:00 local time (15:00 UTC)

Douglas-Charles Airport

Cloudy
29oC (84oF)

Cloudy


Winds: Easterly @ 09kts / 17km/h

Humidity: 67%

Barometric Pressure: 1017 mb

Accumulated Rainfall for December: 254.1 mm

Updated: 11:00 local time (15:00 UTC)

Satellite Imagery

Satellite Imagery
Click image for larger view. (Source: National Hurricane Center).

Aviation Routine Report (METAR)

Douglas-Charles: METAR TDPD 171500Z 08009KT 9999 BKN016 29/22 Q1017=
Canefield: METAR TDCF 171500Z 15006KT 9999 BKN020 28/20 Q1015=